International Virtual Aviation Organisation

Russian Federation and Kazakhstan MCD

 

Карточка аэропорта ULMM

Внимание!
Информация на этой странице в стадии наполнения.
Если вы не увидели какой-то информации, или заметили неточность - пожалуйста сообщите нам!
Спасибо!
Команда RU-STAFF
Название аэропортаМурманск
Название аэропорта (англ.)Murmansk
Превышение262 ft. (79.9 m.)
Координаты68°46.902', 32°45.066'
Высота перехода900m
Эшелон переходаQFE>=753mm:FL050; QFE<753=>727:FL060; QFE<727:FL070
Коды ответчика3101-3117
Зона ОрВДМурманск РПИ (ULMM)
Данные METARULMM 191630Z 15004MPS CAVOK 19/07 Q1007 R13/090070 NOSIG RMK QFE749
Проноз погоды (TAF)ULMM 191350Z 1915/2015 17005G10MPS 9999 SCT030 BECMG 1918/1919 17003G08MPS BKN011 TEMPO 1919/2006 21003G08MPS 5000 -SHRA BKN011CB BECMG 2006/2007 21005G10MPS SCT020 TEMPO 2007/2013 24007G14MPS -SHRA BKN020CB TEMPO 2013/2015 24006G12MPS 3100 -TSRA SCT011 BKN020CB
NOTAMshow/hide NOTAM
AWOS   TABLE

Информация о ВПП

ВПП Длина ВПП (м.) Покрытие Курс ВПП Частота ILS
132500Асфальтобетон131110.3
312500Асфальтобетон311108.5

Диспетчерские позиции




Спутниковое изображение